< < Back
Terminal Aerodrome Forecast


Current Version              Previous Versions:   1  2  3  4  5  6  7  8  9  

Terminal Aerodrome Forecast

838
FTUS42 KMLB 270530
TAFDAB
TAF
KDAB 270530Z 2706/2806 VRB02KT P6SM SKC
     FM271400 12005KT P6SM FEW040
     FM271800 09008KT P6SM SCT040
     FM280200 18003KT P6SM SKC=

Latest METAR

465
SAUS80 KWBC 280800
MTRDAB
METAR KDAB 280753Z 19004KT 10SM FEW040 26/24 A3005 RMK AO2 SLP176 CB
DSNT SW T02560239 $


USA.gov is the U.S. government's official web portal to all federal, state and local government web resources and services.